createdAt,value
2022-11-08T00:00:02.631Z,19.60
2022-11-08T00:02:32.770Z,19.50
2022-11-08T00:05:18.627Z,19.50
2022-11-08T00:08:03.905Z,19.50
2022-11-08T00:10:49.206Z,19.40
2022-11-08T00:13:34.810Z,19.40
2022-11-08T00:16:01.744Z,19.40
2022-11-08T00:18:28.655Z,19.40
2022-11-08T00:20:55.521Z,19.40
2022-11-08T00:23:22.405Z,19.30
2022-11-08T00:25:56.218Z,19.30
2022-11-08T00:28:23.240Z,19.30
2022-11-08T00:30:50.158Z,19.30
2022-11-08T00:33:17.115Z,19.30
2022-11-08T00:35:43.969Z,19.30
2022-11-08T00:38:10.903Z,19.30
2022-11-08T00:40:37.836Z,19.20
2022-11-08T00:43:04.757Z,19.20
2022-11-08T00:45:31.615Z,19.20
2022-11-08T00:47:58.555Z,19.20
2022-11-08T00:50:25.384Z,19.20
2022-11-08T00:52:52.305Z,19.20
2022-11-08T00:55:19.213Z,19.20
2022-11-08T00:57:59.006Z,19.10
2022-11-08T01:00:27.518Z,19.10
2022-11-08T01:03:14.442Z,19.10
2022-11-08T01:05:41.915Z,19.10
2022-11-08T01:08:10.178Z,19.10
2022-11-08T01:10:37.599Z,19.10
2022-11-08T01:13:04.675Z,19.10
2022-11-08T01:15:40.820Z,19.10
2022-11-08T01:18:09.194Z,19.00
2022-11-08T01:20:39.744Z,19.00
2022-11-08T01:23:07.032Z,19.00
2022-11-08T01:25:43.118Z,19.00
2022-11-08T01:28:11.488Z,19.00
2022-11-08T01:30:39.947Z,19.00
2022-11-08T01:33:07.198Z,19.00
2022-11-08T01:35:35.255Z,19.00
2022-11-08T01:38:02.772Z,19.00
2022-11-08T01:40:30.219Z,19.00
2022-11-08T01:42:57.073Z,18.90
2022-11-08T01:46:14.557Z,18.90
2022-11-08T01:49:09.702Z,18.90
2022-11-08T01:51:44.453Z,18.90
2022-11-08T01:54:16.386Z,18.90
2022-11-08T01:56:43.998Z,18.90
2022-11-08T01:59:12.557Z,18.80
2022-11-08T02:01:39.611Z,18.80
2022-11-08T02:04:06.837Z,18.80
2022-11-08T02:06:37.441Z,18.80
2022-11-08T02:09:08.422Z,18.80
2022-11-08T02:11:35.984Z,18.80
2022-11-08T02:14:04.457Z,18.80
2022-11-08T02:16:31.375Z,18.80
2022-11-08T02:18:58.865Z,18.80
2022-11-08T02:21:50.623Z,18.70
2022-11-08T02:24:17.650Z,18.70
2022-11-08T02:26:45.401Z,18.70
2022-11-08T02:29:30.478Z,18.70
2022-11-08T02:31:59.352Z,18.70
2022-11-08T02:34:30.596Z,18.70
2022-11-08T02:36:58.468Z,18.70
2022-11-08T02:39:25.537Z,18.70
2022-11-08T02:41:52.591Z,18.70
2022-11-08T02:44:19.408Z,18.60
2022-11-08T02:46:46.161Z,18.60
2022-11-08T02:49:13.152Z,18.60
2022-11-08T02:51:40.132Z,18.60
2022-11-08T02:54:07.019Z,18.60
2022-11-08T02:56:33.787Z,18.60
2022-11-08T02:59:00.811Z,18.60
2022-11-08T03:01:27.737Z,18.60
2022-11-08T03:03:54.724Z,18.60
2022-11-08T03:06:21.478Z,18.50
2022-11-08T03:08:48.264Z,18.50
2022-11-08T03:11:15.058Z,18.50
2022-11-08T03:13:41.803Z,18.50
2022-11-08T03:16:08.757Z,18.50
2022-11-08T03:18:35.479Z,18.50
2022-11-08T03:21:02.720Z,18.50
2022-11-08T03:23:29.691Z,18.50
2022-11-08T03:25:56.587Z,18.50
2022-11-08T03:28:23.696Z,18.50
2022-11-08T03:30:52.674Z,18.40
2022-11-08T03:33:20.798Z,18.40
2022-11-08T03:35:48.906Z,18.40
2022-11-08T03:38:16.624Z,18.40
2022-11-08T03:40:45.303Z,18.40
2022-11-08T03:43:12.138Z,18.40
2022-11-08T03:45:38.890Z,18.40
2022-11-08T03:48:06.080Z,18.40
2022-11-08T03:50:33.020Z,18.40
2022-11-08T03:52:59.795Z,18.40
2022-11-08T03:55:28.007Z,18.40
2022-11-08T03:57:54.900Z,18.30
2022-11-08T04:00:27.117Z,18.30
2022-11-08T04:02:59.681Z,18.40
2022-11-08T04:05:26.818Z,18.30
2022-11-08T04:07:53.586Z,18.30
2022-11-08T04:10:20.318Z,18.30
2022-11-08T04:13:05.965Z,18.30
2022-11-08T04:15:32.783Z,18.30
2022-11-08T04:18:18.495Z,18.30
2022-11-08T04:21:06.287Z,18.30
2022-11-08T04:23:34.885Z,18.20
2022-11-08T04:26:04.196Z,18.30
2022-11-08T04:28:33.353Z,18.20
2022-11-08T04:31:03.019Z,18.20
2022-11-08T04:33:30.179Z,18.20
2022-11-08T04:36:01.781Z,18.20
2022-11-08T04:38:29.027Z,18.20
2022-11-08T04:41:10.353Z,18.20
2022-11-08T04:43:37.462Z,18.20
2022-11-08T04:46:07.175Z,18.20
2022-11-08T04:48:34.426Z,18.20
2022-11-08T04:51:22.972Z,18.20
2022-11-08T04:53:50.298Z,18.20
2022-11-08T04:56:22.445Z,18.20
2022-11-08T04:58:54.777Z,18.20
2022-11-08T05:01:24.606Z,18.10
2022-11-08T05:03:52.931Z,18.10
2022-11-08T05:06:28.792Z,18.10
2022-11-08T05:08:57.403Z,18.10
2022-11-08T05:11:26.014Z,18.10
2022-11-08T05:13:53.946Z,18.10
2022-11-08T05:16:23.958Z,18.10
2022-11-08T05:18:52.010Z,18.10
2022-11-08T05:21:38.952Z,18.10
2022-11-08T05:24:08.312Z,18.10
2022-11-08T05:26:37.459Z,18.10
2022-11-08T05:29:05.058Z,18.10
2022-11-08T05:31:32.306Z,18.00
2022-11-08T05:34:00.681Z,18.00
2022-11-08T05:36:28.176Z,18.00
2022-11-08T05:38:55.283Z,18.00
2022-11-08T05:41:23.854Z,18.00
2022-11-08T05:43:52.383Z,18.00
2022-11-08T05:46:20.213Z,18.00
2022-11-08T05:48:48.239Z,18.00
2022-11-08T05:51:17.128Z,18.00
2022-11-08T05:53:43.920Z,18.00
2022-11-08T05:56:10.784Z,18.00
2022-11-08T05:58:37.600Z,18.00
2022-11-08T06:01:16.180Z,17.90
2022-11-08T06:03:43.137Z,18.00
2022-11-08T06:06:12.170Z,18.00
2022-11-08T06:08:39.666Z,18.00
2022-11-08T06:11:09.930Z,17.90
2022-11-08T06:13:37.181Z,17.90
2022-11-08T06:16:06.655Z,17.90
2022-11-08T06:18:34.257Z,17.90
2022-11-08T06:21:02.285Z,17.90
2022-11-08T06:23:29.112Z,17.90
2022-11-08T06:25:55.961Z,17.90
2022-11-08T06:28:22.806Z,17.90
2022-11-08T06:30:50.179Z,17.90
2022-11-08T06:33:17.387Z,17.90
2022-11-08T06:35:44.390Z,17.90
2022-11-08T06:38:11.189Z,17.90
2022-11-08T06:40:38.791Z,17.90
2022-11-08T06:43:05.922Z,17.90
2022-11-08T06:45:33.266Z,17.90
2022-11-08T06:48:01.607Z,17.90
2022-11-08T06:50:30.841Z,17.80
2022-11-08T06:53:09.080Z,17.90
2022-11-08T06:55:36.823Z,17.90
2022-11-08T06:58:04.640Z,17.80
2022-11-08T07:00:32.033Z,17.80
2022-11-08T07:03:01.861Z,17.80
2022-11-08T07:05:30.112Z,17.80
2022-11-08T07:08:00.736Z,17.80
2022-11-08T07:10:32.300Z,17.80
2022-11-08T07:13:07.687Z,17.80
2022-11-08T07:15:35.715Z,17.80
2022-11-08T07:18:06.878Z,17.80
2022-11-08T07:20:34.032Z,17.80
2022-11-08T07:23:01.130Z,17.80
2022-11-08T07:25:29.579Z,17.80
2022-11-08T07:28:05.064Z,17.80
2022-11-08T07:30:32.465Z,17.70
2022-11-08T07:32:59.417Z,17.70
2022-11-08T07:35:27.737Z,17.80
2022-11-08T07:37:55.122Z,17.80
2022-11-08T07:40:22.107Z,17.80
2022-11-08T07:45:35.661Z,17.80
2022-11-08T07:48:11.495Z,17.80
2022-11-08T07:50:41.146Z,17.70
2022-11-08T07:53:08.409Z,17.70
2022-11-08T07:55:39.285Z,17.70
2022-11-08T07:58:07.182Z,17.70
2022-11-08T08:00:38.813Z,17.70
2022-11-08T08:03:07.881Z,17.70
2022-11-08T08:05:37.704Z,17.70
2022-11-08T08:08:04.954Z,17.70
2022-11-08T08:10:32.879Z,17.70
2022-11-08T08:13:00.245Z,17.70
2022-11-08T08:15:27.142Z,17.70
2022-11-08T08:17:54.138Z,17.70
2022-11-08T08:20:21.429Z,17.70
2022-11-08T08:22:50.920Z,17.70
2022-11-08T08:25:18.794Z,17.70
2022-11-08T08:27:54.242Z,17.70
2022-11-08T08:30:23.020Z,17.60
2022-11-08T08:33:08.305Z,17.60
2022-11-08T08:35:39.355Z,17.60
2022-11-08T08:38:07.305Z,17.60
2022-11-08T08:40:34.493Z,17.60
2022-11-08T08:43:03.363Z,17.60
2022-11-08T08:45:31.830Z,17.60
2022-11-08T08:47:59.467Z,17.60
2022-11-08T08:50:29.039Z,17.60
2022-11-08T08:53:04.315Z,17.60
2022-11-08T08:55:32.369Z,17.60
2022-11-08T08:57:59.068Z,17.60
2022-11-08T09:03:13.193Z,17.60
2022-11-08T09:05:46.202Z,17.60
2022-11-08T09:08:14.613Z,17.60
2022-11-08T09:10:41.808Z,17.60
2022-11-08T09:13:08.675Z,17.60
2022-11-08T09:15:35.416Z,17.60
2022-11-08T09:18:02.381Z,17.60
2022-11-08T09:20:29.313Z,17.60
2022-11-08T09:22:56.109Z,17.60
2022-11-08T09:25:22.926Z,17.60
2022-11-08T09:27:49.805Z,17.60
2022-11-08T09:30:16.740Z,17.60
2022-11-08T09:33:00.133Z,17.60
2022-11-08T09:35:27.648Z,17.60
2022-11-08T09:37:55.255Z,17.60
2022-11-08T09:40:37.464Z,17.60
2022-11-08T09:43:33.053Z,17.60
2022-11-08T09:46:00.008Z,17.60
2022-11-08T09:48:37.546Z,17.60
2022-11-08T09:51:11.744Z,17.50
2022-11-08T09:53:51.646Z,17.50
2022-11-08T09:56:21.622Z,17.50
2022-11-08T09:59:02.509Z,17.50
2022-11-08T10:01:36.682Z,17.50
2022-11-08T10:04:17.303Z,17.50
2022-11-08T10:07:19.443Z,17.50
2022-11-08T10:09:52.437Z,17.50
2022-11-08T10:12:29.081Z,17.50
2022-11-08T10:15:35.111Z,17.50
2022-11-08T10:18:37.182Z,17.50
2022-11-08T10:21:27.266Z,17.50
2022-11-08T10:24:38.004Z,17.50
2022-11-08T10:27:16.074Z,17.50
2022-11-08T10:29:45.670Z,17.50
2022-11-08T10:32:22.796Z,17.50
2022-11-08T10:35:11.379Z,17.50
2022-11-08T10:37:40.899Z,17.50
2022-11-08T10:40:19.416Z,17.50
2022-11-08T10:42:51.614Z,17.50
2022-11-08T10:45:18.379Z,17.50
2022-11-08T10:47:46.860Z,17.50
2022-11-08T10:50:15.861Z,17.50
2022-11-08T10:52:53.594Z,17.50
2022-11-08T10:55:38.379Z,17.50
2022-11-08T10:58:31.714Z,17.50
2022-11-08T11:01:14.386Z,17.50
2022-11-08T11:03:41.750Z,17.50
2022-11-08T11:06:32.462Z,17.50
2022-11-08T11:09:17.063Z,17.50
2022-11-08T11:11:45.305Z,17.50
2022-11-08T11:14:22.060Z,17.50
2022-11-08T11:16:55.455Z,17.50
2022-11-08T11:19:24.289Z,17.50
2022-11-08T11:22:10.030Z,17.50
2022-11-08T11:24:46.262Z,17.50
2022-11-08T11:27:37.461Z,17.50
2022-11-08T11:30:24.545Z,17.50
2022-11-08T11:32:57.272Z,17.50
2022-11-08T11:35:27.427Z,17.50
2022-11-08T11:37:55.246Z,17.50
2022-11-08T11:40:46.865Z,17.50
2022-11-08T11:43:20.147Z,17.50
2022-11-08T11:45:58.287Z,17.50
2022-11-08T11:48:39.721Z,17.50
2022-11-08T11:51:10.701Z,17.50
2022-11-08T11:53:39.780Z,17.50
2022-11-08T11:56:16.611Z,17.50
2022-11-08T11:58:49.564Z,17.50
2022-11-08T12:01:39.113Z,17.50
2022-11-08T12:04:22.705Z,17.50
2022-11-08T12:07:19.256Z,17.50
2022-11-08T12:10:00.924Z,17.60
2022-11-08T12:12:48.785Z,17.50
2022-11-08T12:15:23.840Z,17.50
2022-11-08T12:18:25.798Z,17.50
2022-11-08T12:21:07.809Z,17.60
2022-11-08T12:23:59.430Z,17.50
2022-11-08T12:27:07.341Z,17.50
2022-11-08T12:29:55.267Z,17.60
2022-11-08T12:32:34.196Z,17.60
2022-11-08T12:35:15.943Z,17.60
2022-11-08T12:38:20.697Z,17.60
2022-11-08T12:41:05.239Z,17.60
2022-11-08T12:43:34.807Z,17.60
2022-11-08T12:46:10.514Z,17.60
2022-11-08T12:49:08.915Z,17.60
2022-11-08T12:52:27.220Z,17.50
2022-11-08T12:55:00.596Z,17.60
2022-11-08T12:57:28.461Z,17.60
2022-11-08T13:00:14.171Z,17.60
2022-11-08T13:02:43.240Z,17.60
2022-11-08T13:05:48.062Z,17.60
2022-11-08T13:08:14.932Z,17.60
2022-11-08T13:11:01.070Z,17.60
2022-11-08T13:13:53.299Z,17.60
2022-11-08T13:16:21.505Z,17.50
2022-11-08T13:18:57.711Z,17.60
2022-11-08T13:21:38.315Z,17.60
2022-11-08T13:24:14.228Z,17.60
2022-11-08T13:26:53.731Z,17.60
2022-11-08T13:29:27.283Z,17.60
2022-11-08T13:32:18.312Z,17.60
2022-11-08T13:35:34.302Z,17.60
2022-11-08T13:38:04.138Z,17.60
2022-11-08T13:40:57.883Z,17.60
2022-11-08T13:43:27.456Z,17.60
2022-11-08T13:45:55.390Z,17.60
2022-11-08T13:48:28.499Z,17.60
2022-11-08T13:50:57.401Z,17.60
2022-11-08T13:53:47.363Z,17.60
2022-11-08T13:56:22.885Z,17.60
2022-11-08T13:58:49.779Z,17.60
2022-11-08T14:01:19.434Z,17.60
2022-11-08T14:03:46.247Z,17.60
2022-11-08T14:06:34.664Z,17.60
2022-11-08T14:09:37.132Z,17.60
2022-11-08T14:12:33.881Z,17.60
2022-11-08T14:15:15.594Z,17.60
2022-11-08T14:17:47.667Z,17.60
2022-11-08T14:20:30.723Z,17.60
2022-11-08T14:22:59.308Z,17.60
2022-11-08T14:25:35.651Z,17.60
2022-11-08T14:28:02.908Z,17.60
2022-11-08T14:30:29.650Z,17.60
2022-11-08T14:33:14.065Z,17.60
2022-11-08T14:35:40.888Z,17.60
2022-11-08T14:38:15.386Z,17.60
2022-11-08T14:40:49.707Z,17.60
2022-11-08T14:43:16.966Z,17.60
2022-11-08T14:45:44.876Z,17.60
2022-11-08T14:48:20.235Z,17.60
2022-11-08T14:50:47.260Z,17.60
2022-11-08T14:53:28.007Z,17.60
2022-11-08T14:56:08.957Z,17.60
2022-11-08T14:58:37.490Z,17.60
2022-11-08T15:01:05.434Z,17.60
2022-11-08T15:03:33.565Z,17.60
2022-11-08T15:06:11.126Z,17.60
2022-11-08T15:08:55.078Z,17.60
2022-11-08T15:11:33.089Z,17.60
2022-11-08T15:14:06.838Z,17.60
2022-11-08T15:16:46.199Z,17.60
2022-11-08T15:19:31.913Z,17.50
2022-11-08T15:22:00.798Z,17.60
2022-11-08T15:24:37.430Z,17.60
2022-11-08T15:27:10.311Z,17.60
2022-11-08T15:29:59.222Z,17.60
2022-11-08T15:32:26.909Z,17.60
2022-11-08T15:34:58.445Z,17.60
2022-11-08T15:37:36.093Z,17.60
2022-11-08T15:40:16.141Z,17.60
2022-11-08T15:42:46.252Z,17.60
2022-11-08T15:45:13.121Z,17.60
2022-11-08T15:47:42.806Z,17.60
2022-11-08T15:50:12.940Z,17.60
2022-11-08T15:52:39.846Z,17.50
2022-11-08T15:55:07.623Z,17.60
2022-11-08T15:57:40.566Z,17.50
2022-11-08T16:00:14.173Z,17.50
2022-11-08T16:02:41.523Z,17.50
2022-11-08T16:05:16.402Z,17.50
2022-11-08T16:07:46.825Z,17.60
2022-11-08T16:10:15.600Z,17.50
2022-11-08T16:12:45.849Z,17.50
2022-11-08T16:15:16.257Z,17.50
2022-11-08T16:17:43.367Z,17.50
2022-11-08T16:20:27.680Z,17.50
2022-11-08T16:22:56.537Z,17.50
2022-11-08T16:25:25.150Z,17.50
2022-11-08T16:28:08.284Z,17.40
2022-11-08T16:30:35.893Z,17.40
2022-11-08T16:33:17.684Z,17.50
2022-11-08T16:35:44.450Z,17.50
2022-11-08T16:38:11.560Z,17.50
2022-11-08T16:40:41.166Z,17.50
2022-11-08T16:43:12.006Z,17.50
2022-11-08T16:46:03.861Z,17.50
2022-11-08T16:48:27.026Z,17.50
2022-11-08T16:51:02.248Z,17.50
2022-11-08T16:53:29.645Z,17.50
2022-11-08T16:55:57.088Z,17.50
2022-11-08T16:58:24.542Z,17.50
2022-11-08T17:00:51.625Z,17.50
2022-11-08T17:03:24.289Z,17.50
2022-11-08T17:05:51.996Z,17.50
2022-11-08T17:08:19.062Z,17.50
2022-11-08T17:10:46.322Z,17.50
2022-11-08T17:13:17.960Z,17.50
2022-11-08T17:15:45.481Z,17.50
2022-11-08T17:18:14.484Z,17.50
2022-11-08T17:20:41.699Z,17.50
2022-11-08T17:23:09.272Z,17.50
2022-11-08T17:25:37.913Z,17.50
2022-11-08T17:28:05.026Z,17.50
2022-11-08T17:30:32.241Z,17.50
2022-11-08T17:32:59.084Z,17.50
2022-11-08T17:35:26.070Z,17.50
2022-11-08T17:37:53.617Z,17.50
2022-11-08T17:40:20.447Z,17.50
2022-11-08T17:42:47.252Z,17.50
2022-11-08T17:45:14.136Z,17.50
2022-11-08T17:47:40.959Z,17.60
2022-11-08T17:50:10.181Z,17.60
2022-11-08T17:52:37.190Z,17.60
2022-11-08T17:55:04.565Z,17.60
2022-11-08T17:57:31.360Z,17.60
2022-11-08T17:59:58.326Z,17.60
2022-11-08T18:02:27.490Z,17.60
2022-11-08T18:04:54.727Z,17.70
2022-11-08T18:07:21.550Z,17.70
2022-11-08T18:09:48.338Z,17.80
2022-11-08T18:12:15.064Z,17.90
2022-11-08T18:14:41.971Z,18.00
2022-11-08T18:17:08.918Z,18.10
2022-11-08T18:19:36.004Z,18.20
2022-11-08T18:22:04.520Z,18.50
2022-11-08T18:24:31.401Z,18.60
2022-11-08T18:26:58.382Z,18.80
2022-11-08T18:29:25.130Z,19.10
2022-11-08T18:31:52.042Z,19.30
2022-11-08T18:34:18.776Z,19.60
2022-11-08T18:36:48.238Z,19.80
2022-11-08T18:39:18.426Z,20.00
2022-11-08T18:41:47.200Z,20.20
2022-11-08T18:44:14.058Z,20.40
2022-11-08T18:46:43.556Z,20.60
2022-11-08T18:49:10.982Z,20.70
2022-11-08T18:51:37.819Z,20.80
2022-11-08T18:54:04.658Z,21.00
2022-11-08T18:56:31.458Z,21.10
2022-11-08T18:58:58.356Z,21.30
2022-11-08T19:01:25.121Z,21.50
2022-11-08T19:03:51.950Z,21.70
2022-11-08T19:06:19.574Z,22.00
2022-11-08T19:08:46.579Z,22.20
2022-11-08T19:11:14.401Z,22.50
2022-11-08T19:13:41.635Z,22.80
2022-11-08T19:16:14.407Z,23.00
2022-11-08T19:18:42.277Z,23.30
2022-11-08T19:21:20.101Z,23.40
2022-11-08T19:23:48.073Z,23.60
2022-11-08T19:26:23.935Z,23.80
2022-11-08T19:28:53.425Z,24.00
2022-11-08T19:31:22.628Z,24.10
2022-11-08T19:33:51.982Z,24.20
2022-11-08T19:36:21.315Z,24.30
2022-11-08T19:38:48.778Z,24.30
2022-11-08T19:41:18.505Z,24.40
2022-11-08T19:43:46.465Z,24.50
2022-11-08T19:46:15.866Z,24.50
2022-11-08T19:48:44.220Z,24.50
2022-11-08T19:51:24.891Z,24.40
2022-11-08T19:53:56.079Z,24.40
2022-11-08T19:56:29.323Z,24.40
2022-11-08T19:59:09.919Z,24.40
2022-11-08T20:01:38.948Z,24.30
2022-11-08T20:04:10.636Z,24.30
2022-11-08T20:06:37.576Z,24.20
2022-11-08T20:09:05.131Z,24.20
2022-11-08T20:11:35.731Z,24.20
2022-11-08T20:14:03.595Z,24.10
2022-11-08T20:16:40.875Z,24.10
2022-11-08T20:19:16.351Z,24.00
2022-11-08T20:21:45.970Z,24.00
2022-11-08T20:24:13.663Z,23.90
2022-11-08T20:26:41.370Z,23.80
2022-11-08T20:29:08.866Z,23.80
2022-11-08T20:31:36.380Z,23.70
2022-11-08T20:34:05.973Z,23.70
2022-11-08T20:36:35.413Z,23.60
2022-11-08T20:39:06.979Z,23.50
2022-11-08T20:41:35.676Z,23.50
2022-11-08T20:44:02.934Z,23.40
2022-11-08T20:46:29.800Z,23.30
2022-11-08T20:49:00.203Z,23.30
2022-11-08T20:51:28.722Z,23.30
2022-11-08T20:53:56.477Z,23.20
2022-11-08T20:56:24.115Z,23.10
2022-11-08T20:58:52.122Z,23.00
2022-11-08T21:01:22.052Z,23.00
2022-11-08T21:03:49.692Z,22.90
2022-11-08T21:06:19.793Z,22.80
2022-11-08T21:09:14.388Z,22.80
2022-11-08T21:11:35.355Z,22.70
2022-11-08T21:14:03.458Z,22.70
2022-11-08T21:16:35.136Z,22.60
2022-11-08T21:19:05.826Z,22.60
2022-11-08T21:21:33.040Z,22.50
2022-11-08T21:24:00.158Z,22.40
2022-11-08T21:26:27.019Z,22.40
2022-11-08T21:28:53.894Z,22.40
2022-11-08T21:31:20.759Z,22.30
2022-11-08T21:33:47.588Z,22.30
2022-11-08T21:36:15.241Z,22.20
2022-11-08T21:38:42.020Z,22.20
2022-11-08T21:41:10.125Z,22.10
2022-11-08T21:43:43.264Z,22.10
2022-11-08T21:46:21.838Z,22.00
2022-11-08T21:48:53.951Z,22.00
2022-11-08T21:51:20.908Z,21.90
2022-11-08T21:53:54.694Z,21.90
2022-11-08T21:56:24.237Z,21.80
2022-11-08T21:58:51.389Z,21.70
2022-11-08T22:01:18.727Z,21.70
2022-11-08T22:03:46.598Z,21.60
2022-11-08T22:06:13.916Z,21.60
2022-11-08T22:08:40.791Z,21.60
2022-11-08T22:11:07.579Z,21.50
2022-11-08T22:13:34.323Z,21.50
2022-11-08T22:16:01.349Z,21.40
2022-11-08T22:18:43.394Z,21.40
2022-11-08T22:21:33.362Z,21.40
2022-11-08T22:24:00.183Z,21.30
2022-11-08T22:26:26.916Z,21.30
2022-11-08T22:28:53.755Z,21.30
2022-11-08T22:31:20.518Z,21.20
2022-11-08T22:33:47.399Z,21.20
2022-11-08T22:36:14.539Z,21.20
2022-11-08T22:38:41.317Z,21.10
2022-11-08T22:41:08.137Z,21.10
2022-11-08T22:43:36.091Z,21.10
2022-11-08T22:46:03.052Z,21.00
2022-11-08T22:48:29.786Z,21.00
2022-11-08T22:50:57.396Z,21.00
2022-11-08T22:53:24.461Z,20.90
2022-11-08T22:55:51.398Z,20.90
2022-11-08T22:58:18.199Z,20.90
2022-11-08T23:00:45.070Z,20.90
2022-11-08T23:03:12.129Z,20.80
2022-11-08T23:05:39.062Z,20.80
2022-11-08T23:08:06.117Z,20.80
2022-11-08T23:10:52.865Z,20.70
2022-11-08T23:13:38.051Z,20.70
2022-11-08T23:16:23.957Z,20.70
2022-11-08T23:19:16.922Z,20.60
2022-11-08T23:22:02.548Z,20.60
2022-11-08T23:24:31.504Z,20.60
2022-11-08T23:27:18.519Z,20.50
2022-11-08T23:30:04.421Z,20.50
2022-11-08T23:32:31.855Z,20.50
2022-11-08T23:34:58.642Z,20.50
2022-11-08T23:37:25.580Z,20.40
2022-11-08T23:40:10.834Z,20.40
2022-11-08T23:42:56.132Z,20.40
2022-11-08T23:45:23.229Z,20.30
2022-11-08T23:47:52.443Z,20.30
2022-11-08T23:50:19.260Z,20.30
2022-11-08T23:52:46.032Z,20.20
2022-11-08T23:55:12.801Z,20.20
2022-11-08T23:57:39.579Z,20.20
